Terminal Aerodrome Forecast
Issued by NWS

Home | Current Version | Previous Version | Text Only | Print | Product List | Glossary Off
Versions: 1 2 3 4 5 6 7 8 9 10 11 12 13 14 15 16 17

000
FTUS43 KBIS 270900 AAA
TAFDIK
TAF AMD
KDIK 270944Z 2710/2806 29008KT P6SM BKN015 BKN030
     FM271500 35009KT P6SM BKN035
     FM271700 36010KT P6SM SCT050
     FM280200 07006KT P6SM SKC=

USA.gov is the U.S. government's official web portal to all federal, state and local government web resources and services.